Time;durP1;ratioP1;P1;durP2;ratioP2;P2;SDS_P1;SDS_P2;PMS_P1;PMS_P2;Temp;Humidity;BMP_temperature;BMP_pressure;BME280_temperature;BME280_humidity;BME280_pressure;Samples;Min_cycle;Max_cycle;Signal;HPM_P1;HPM_P2
2021/10/13 00:00:12;;;;;;;1.20;1.10;;;10.50;78.40;;;;;;4961899;28;20036;-67
2021/10/13 00:02:38;;;;;;;1.40;1.30;;;10.50;78.30;;;;;;4963067;28;20039;-66
2021/10/13 00:05:05;;;;;;;1.20;1.10;;;10.50;78.00;;;;;;4960342;28;20402;-67
2021/10/13 00:07:32;;;;;;;1.67;1.10;;;10.40;77.90;;;;;;4961276;28;20038;-66
2021/10/13 00:09:58;;;;;;;1.25;1.15;;;10.40;77.80;;;;;;4962556;28;20031;-67
2021/10/13 00:12:25;;;;;;;1.30;1.10;;;10.30;77.70;;;;;;4962137;28;20410;-65
2021/10/13 00:14:51;;;;;;;1.85;1.30;;;10.30;78.60;;;;;;4958123;28;20043;-66
2021/10/13 00:17:16;;;;;;;1.27;1.17;;;10.30;77.70;;;;;;4960634;28;20046;-67
2021/10/13 00:19:42;;;;;;;1.77;1.67;;;10.20;77.60;;;;;;4961296;28;20035;-66
2021/10/13 00:22:08;;;;;;;1.70;1.60;;;10.20;77.70;;;;;;4961271;28;20395;-66
2021/10/13 00:24:33;;;;;;;1.73;1.60;;;10.10;77.70;;;;;;4959028;28;20125;-66
2021/10/13 00:26:59;;;;;;;2.13;1.80;;;10.00;77.90;;;;;;4959793;28;20027;-66
2021/10/13 00:29:26;;;;;;;1.73;1.58;;;10.00;77.90;;;;;;4959052;28;20501;-67
2021/10/13 00:31:51;;;;;;;1.63;1.52;;;9.90;77.80;;;;;;4959943;28;20069;-67
2021/10/13 00:34:17;;;;;;;1.73;1.63;;;9.80;77.70;;;;;;4957941;28;20035;-67
2021/10/13 00:36:43;;;;;;;2.13;1.92;;;9.80;77.80;;;;;;4960502;28;20383;-67
2021/10/13 00:39:09;;;;;;;2.67;1.67;;;9.70;77.90;;;;;;4959037;28;20090;-66
2021/10/13 00:41:35;;;;;;;1.60;1.50;;;9.70;78.10;;;;;;4960177;28;20466;-66
2021/10/13 00:44:01;;;;;;;2.03;1.92;;;9.60;78.00;;;;;;4959178;28;20050;-66
2021/10/13 00:46:26;;;;;;;2.58;2.38;;;9.50;77.90;;;;;;4958264;28;20483;-66
2021/10/13 00:48:52;;;;;;;2.33;2.13;;;9.50;78.00;;;;;;4956255;28;20031;-66
2021/10/13 00:51:18;;;;;;;4.35;2.58;;;9.40;78.10;;;;;;4959236;28;20100;-67
2021/10/13 00:53:44;;;;;;;2.95;2.63;;;9.40;78.30;;;;;;4960109;28;20121;-66
2021/10/13 00:56:09;;;;;;;2.78;2.58;;;9.30;78.40;;;;;;4960028;28;20066;-66
2021/10/13 00:58:35;;;;;;;3.00;2.70;;;9.20;78.60;;;;;;4956386;28;20134;-66
2021/10/13 01:01:09;;;;;;;2.65;2.45;;;9.20;78.90;;;;;;4960729;28;20058;-66
2021/10/13 01:03:47;;;;;;;2.45;2.25;;;9.10;79.90;;;;;;4958857;28;20082;-66
2021/10/13 01:06:29;;;;;;;2.42;2.22;;;9.10;79.20;;;;;;4959481;28;20101;-67
2021/10/13 01:09:06;;;;;;;3.03;2.67;;;9.00;79.80;;;;;;4956627;28;20035;-67
2021/10/13 01:11:53;;;;;;;2.50;2.30;;;9.00;79.80;;;;;;4968779;28;20046;-66
2021/10/13 01:14:30;;;;;;;2.80;2.60;;;9.00;79.90;;;;;;4959518;28;20045;-66
2021/10/13 01:17:22;;;;;;;2.90;2.63;;;9.00;80.00;;;;;;4958093;28;20113;-66
2021/10/13 01:20:15;;;;;;;2.72;2.53;;;9.00;79.80;;;;;;4956191;28;20034;-67
2021/10/13 01:22:47;;;;;;;3.00;2.80;;;9.00;79.60;;;;;;4964136;28;20066;-67
2021/10/13 01:25:31;;;;;;;2.90;2.65;;;9.00;79.30;;;;;;4959420;28;20034;-67
2021/10/13 01:28:00;;;;;;;2.85;2.65;;;9.00;79.10;;;;;;4956900;28;20549;-66
2021/10/13 01:30:33;;;;;;;2.83;2.63;;;9.00;78.70;;;;;;4957890;28;20495;-66
2021/10/13 01:33:30;;;;;;;3.63;3.28;;;8.90;78.40;;;;;;4960026;28;20412;-67
2021/10/13 01:36:00;;;;;;;7.40;3.85;;;8.90;78.40;;;;;;4953901;28;20049;-66
2021/10/13 01:38:28;;;;;;;9.18;4.55;;;8.80;78.30;;;;;;4958277;28;20035;-67
2021/10/13 01:41:00;;;;;;;6.53;4.10;;;8.80;78.40;;;;;;4957753;28;20034;-66
2021/10/13 01:43:28;;;;;;;7.68;4.38;;;8.70;78.60;;;;;;4956917;28;20043;-66
2021/10/13 01:45:55;;;;;;;5.47;3.80;;;8.70;79.10;;;;;;4958467;28;20039;-66
2021/10/13 01:48:22;;;;;;;5.60;3.38;;;8.60;79.30;;;;;;4960326;28;20110;-66
2021/10/13 01:50:50;;;;;;;5.78;3.65;;;8.60;79.60;;;;;;4954035;28;20035;-66
2021/10/13 01:53:19;;;;;;;6.03;4.22;;;8.60;79.80;;;;;;4953167;28;20027;-66
2021/10/13 01:55:47;;;;;;;7.13;4.18;;;8.60;80.00;;;;;;4955606;28;20054;-66
2021/10/13 01:58:15;;;;;;;5.35;3.83;;;8.60;80.00;;;;;;4956562;28;20065;-66
2021/10/13 02:00:47;;;;;;;5.10;4.07;;;8.60;80.20;;;;;;4955389;28;20058;-66
2021/10/13 02:03:13;;;;;;;4.65;3.90;;;8.60;80.40;;;;;;4956283;28;20068;-64
2021/10/13 02:05:41;;;;;;;4.50;3.72;;;8.60;80.50;;;;;;4956174;28;20031;-66
2021/10/13 02:08:07;;;;;;;3.63;3.33;;;8.70;80.80;;;;;;4958372;28;20112;-66
2021/10/13 02:10:34;;;;;;;4.35;3.92;;;8.70;80.80;;;;;;4955663;28;20430;-66
2021/10/13 02:13:01;;;;;;;4.40;4.00;;;8.70;80.90;;;;;;4957044;28;20031;-67
2021/10/13 02:15:28;;;;;;;4.22;3.83;;;8.80;81.00;;;;;;4957002;28;20050;-66
2021/10/13 02:17:57;;;;;;;4.38;3.80;;;8.80;81.20;;;;;;4959155;28;20034;-66
2021/10/13 02:20:24;;;;;;;4.35;3.65;;;8.90;81.20;;;;;;4957466;28;20509;-66
2021/10/13 02:23:01;;;;;;;4.15;3.75;;;8.90;81.20;;;;;;4961195;28;20125;-67
2021/10/13 02:25:37;;;;;;;4.38;3.97;;;8.90;81.40;;;;;;4957681;28;20062;-66
2021/10/13 02:28:09;;;;;;;4.53;3.60;;;9.00;81.30;;;;;;4956256;28;20082;-66
2021/10/13 02:30:35;;;;;;;4.07;3.67;;;9.10;81.10;;;;;;4957993;28;20043;-67
2021/10/13 02:33:00;;;;;;;3.70;3.40;;;9.10;80.90;;;;;;4955965;28;20128;-66
2021/10/13 02:35:26;;;;;;;4.05;3.65;;;9.10;80.80;;;;;;4956981;28;20097;-66
2021/10/13 02:37:52;;;;;;;3.80;3.20;;;9.20;80.80;;;;;;4958582;28;20031;-66
2021/10/13 02:40:17;;;;;;;4.07;3.15;;;9.20;80.60;;;;;;4959518;28;20530;-67
2021/10/13 02:42:44;;;;;;;3.70;3.28;;;9.20;80.30;;;;;;4955372;28;20111;-66
2021/10/13 02:45:10;;;;;;;3.60;3.30;;;9.20;80.00;;;;;;4955719;28;20142;-66
2021/10/13 02:48:00;;;;;;;4.05;3.13;;;9.30;79.80;;;;;;4955425;28;20121;-66
2021/10/13 02:50:41;;;;;;;4.22;3.38;;;9.30;79.30;;;;;;4956740;28;20047;-67
2021/10/13 02:53:19;;;;;;;3.55;3.22;;;9.20;78.90;;;;;;4958136;28;20032;-67
2021/10/13 02:56:06;;;;;;;3.33;3.03;;;9.20;78.70;;;;;;4955194;28;20039;-66
2021/10/13 02:58:31;;;;;;;3.70;3.40;;;9.20;78.60;;;;;;4959079;28;20039;-66
2021/10/13 03:01:00;;;;;;;4.72;4.05;;;9.20;78.60;;;;;;4958240;28;20058;-66
2021/10/13 03:03:36;;;;;;;4.18;3.72;;;9.10;78.90;;;;;;4958558;28;20026;-66
2021/10/13 03:06:04;;;;;;;5.05;4.00;;;9.10;79.10;;;;;;4954819;28;20027;-66
2021/10/13 03:08:34;;;;;;;4.40;4.00;;;9.10;79.30;;;;;;4958027;28;20034;-67
2021/10/13 03:11:01;;;;;;;3.85;3.42;;;9.00;79.30;;;;;;4954038;28;20124;-66
2021/10/13 03:13:31;;;;;;;4.57;3.60;;;9.00;79.20;;;;;;4961329;28;20045;-66
2021/10/13 03:15:59;;;;;;;3.90;3.60;;;8.90;78.90;;;;;;4961860;28;20035;-67
2021/10/13 03:18:26;;;;;;;5.05;3.78;;;8.90;78.90;;;;;;4965140;28;20047;-66
2021/10/13 03:20:52;;;;;;;4.30;3.88;;;8.80;78.90;;;;;;4964667;28;20442;-67
2021/10/13 03:23:19;;;;;;;4.13;3.70;;;8.70;78.80;;;;;;4966434;28;20039;-66
2021/10/13 03:25:45;;;;;;;4.05;3.67;;;8.60;78.80;;;;;;4964568;28;20107;-67
2021/10/13 03:28:13;;;;;;;4.70;4.20;;;8.60;78.80;;;;;;4965234;28;20039;-67
2021/10/13 03:30:38;;;;;;;4.50;4.10;;;8.50;78.80;;;;;;4965739;28;20038;-66
2021/10/13 03:33:04;;;;;;;4.88;4.38;;;8.40;78.90;;;;;;4964953;28;20083;-66
2021/10/13 03:35:32;;;;;;;5.07;4.50;;;8.30;78.90;;;;;;4965784;28;20035;-66
2021/10/13 03:38:01;;;;;;;5.25;4.60;;;8.20;79.00;;;;;;4964723;28;20085;-67
2021/10/13 03:40:27;;;;;;;5.95;4.60;;;8.10;79.00;;;;;;4964018;28;20057;-66
2021/10/13 03:42:53;;;;;;;5.70;4.50;;;8.10;79.00;;;;;;4963931;28;20082;-66
2021/10/13 03:45:20;;;;;;;4.43;4.03;;;8.00;78.90;;;;;;4962717;28;20038;-67
2021/10/13 03:47:46;;;;;;;7.35;4.88;;;8.00;79.10;;;;;;4967191;28;20053;-66
2021/10/13 03:50:14;;;;;;;9.15;4.88;;;7.90;79.30;;;;;;4965761;28;20035;-66
2021/10/13 03:52:40;;;;;;;7.50;4.82;;;7.80;79.30;;;;;;4965080;28;20038;-65
2021/10/13 03:55:09;;;;;;;6.38;4.97;;;7.80;79.50;;;;;;4963675;28;20451;-65
2021/10/13 03:57:36;;;;;;;6.22;5.22;;;7.70;79.70;;;;;;4965277;28;20137;-64
2021/10/13 04:00:04;;;;;;;6.43;5.75;;;7.70;80.00;;;;;;4964784;28;20594;-66
2021/10/13 04:02:29;;;;;;;7.35;5.68;;;7.60;80.10;;;;;;4964478;28;20161;-67
2021/10/13 04:04:55;;;;;;;6.95;5.43;;;7.50;80.10;;;;;;4963891;28;20190;-66
2021/10/13 04:07:20;;;;;;;6.00;5.40;;;7.50;80.20;;;;;;4965846;28;20034;-66
2021/10/13 04:09:46;;;;;;;6.22;5.25;;;7.40;80.10;;;;;;4965129;28;20685;-66
2021/10/13 04:12:12;;;;;;;8.20;5.35;;;7.50;80.30;;;;;;4965572;28;20133;-67
2021/10/13 04:14:38;;;;;;;6.00;5.32;;;7.40;80.30;;;;;;4964833;28;20030;-66
2021/10/13 04:17:03;;;;;;;6.70;5.03;;;7.40;80.00;;;;;;4965890;28;20073;-66
2021/10/13 04:19:29;;;;;;;5.65;4.95;;;7.40;79.80;;;;;;4968005;28;20117;-66
2021/10/13 04:21:55;;;;;;;5.57;5.00;;;7.40;79.80;;;;;;4965423;28;20163;-66
2021/10/13 04:24:20;;;;;;;6.22;5.45;;;7.30;79.60;;;;;;4963297;28;20035;-67
2021/10/13 04:26:46;;;;;;;6.95;5.60;;;7.30;79.60;;;;;;4961930;28;20059;-67
2021/10/13 04:29:11;;;;;;;6.68;6.00;;;7.30;79.40;;;;;;4960621;28;20058;-66
2021/10/13 04:31:37;;;;;;;7.45;5.88;;;7.20;79.30;;;;;;4960324;28;20039;-66
2021/10/13 04:34:03;;;;;;;6.90;5.38;;;7.20;79.30;;;;;;4961348;28;20165;-67
2021/10/13 04:36:28;;;;;;;6.47;5.32;;;7.20;79.10;;;;;;4960940;28;20112;-67
2021/10/13 04:38:54;;;;;;;8.18;5.50;;;7.10;79.10;;;;;;4962494;28;20174;-66
2021/10/13 04:41:19;;;;;;;7.68;5.60;;;7.10;79.50;;;;;;4960964;28;20117;-67
2021/10/13 04:43:45;;;;;;;5.90;5.10;;;7.00;79.70;;;;;;4962509;28;20030;-66
2021/10/13 04:46:11;;;;;;;6.22;5.63;;;7.00;79.80;;;;;;4961366;28;20541;-66
2021/10/13 04:48:36;;;;;;;6.35;5.68;;;6.90;79.90;;;;;;4960554;28;20038;-67
2021/10/13 04:51:02;;;;;;;6.68;5.40;;;6.90;80.00;;;;;;4961038;28;20499;-67
2021/10/13 04:53:27;;;;;;;7.20;6.03;;;6.90;79.90;;;;;;4962729;28;20641;-64
2021/10/13 04:55:53;;;;;;;11.70;6.13;;;6.80;79.70;;;;;;4967689;28;20042;-66
2021/10/13 04:58:19;;;;;;;11.55;5.68;;;6.80;79.80;;;;;;4960119;28;20043;-66
2021/10/13 05:00:44;;;;;;;7.80;5.80;;;6.80;79.90;;;;;;4959871;28;20073;-66
2021/10/13 05:03:10;;;;;;;7.88;6.47;;;6.70;80.00;;;;;;4962384;28;20023;-67
2021/10/13 05:05:37;;;;;;;9.45;7.78;;;6.70;80.00;;;;;;4960314;28;20546;-65
2021/10/13 05:08:03;;;;;;;10.02;7.00;;;6.60;80.00;;;;;;4962152;28;20046;-66
2021/10/13 05:10:29;;;;;;;7.50;6.30;;;6.60;80.40;;;;;;4961701;28;20512;-66
2021/10/13 05:12:55;;;;;;;7.90;6.07;;;6.50;80.70;;;;;;4960170;28;20061;-67
2021/10/13 05:15:20;;;;;;;7.07;6.00;;;6.50;80.80;;;;;;4961038;28;20039;-66
2021/10/13 05:17:46;;;;;;;7.65;5.43;;;6.50;81.10;;;;;;4961990;28;20031;-67
2021/10/13 05:20:12;;;;;;;7.05;6.13;;;6.50;81.10;;;;;;4960602;28;20027;-67
2021/10/13 05:22:37;;;;;;;7.88;5.97;;;6.50;81.30;;;;;;4960749;28;20034;-66
2021/10/13 05:25:04;;;;;;;10.07;6.78;;;6.50;81.30;;;;;;4961006;28;20602;-66
2021/10/13 05:27:29;;;;;;;8.02;6.30;;;6.50;81.20;;;;;;4958936;28;20047;-67
2021/10/13 05:29:55;;;;;;;7.72;6.40;;;6.60;81.10;;;;;;4964420;28;20040;-66
2021/10/13 05:32:20;;;;;;;9.73;6.47;;;6.60;81.00;;;;;;4959964;28;20039;-67
2021/10/13 05:34:46;;;;;;;8.25;6.60;;;6.60;81.10;;;;;;4960432;28;20118;-66
2021/10/13 05:37:12;;;;;;;9.10;6.85;;;6.50;81.10;;;;;;4961062;28;20027;-66
2021/10/13 05:39:37;;;;;;;7.38;6.47;;;6.60;81.10;;;;;;4962062;28;20030;-66
2021/10/13 05:42:03;;;;;;;10.35;7.28;;;6.60;81.10;;;;;;4961756;28;20031;-66
2021/10/13 05:44:29;;;;;;;8.80;6.55;;;6.60;81.20;;;;;;4958552;28;20059;-67
2021/10/13 05:46:55;;;;;;;8.40;6.72;;;6.60;81.30;;;;;;4960657;28;20694;-66
2021/10/13 05:49:21;;;;;;;9.18;6.90;;;6.60;81.30;;;;;;4960753;28;20026;-66
2021/10/13 05:51:46;;;;;;;12.02;6.85;;;6.60;81.20;;;;;;4961686;28;20114;-65
2021/10/13 05:54:12;;;;;;;9.57;7.15;;;6.70;81.20;;;;;;4960020;28;20557;-67
2021/10/13 05:56:38;;;;;;;9.00;6.97;;;6.70;81.30;;;;;;4960250;28;20038;-66
2021/10/13 05:59:04;;;;;;;9.90;6.97;;;6.70;81.40;;;;;;4961989;28;20035;-67
2021/10/13 06:01:29;;;;;;;8.27;6.60;;;6.80;81.60;;;;;;4960293;28;20042;-66
2021/10/13 06:03:55;;;;;;;12.75;7.22;;;6.80;81.70;;;;;;4960233;28;20043;-66
2021/10/13 06:06:21;;;;;;;12.80;7.57;;;6.80;81.80;;;;;;4960177;28;20146;-66
2021/10/13 06:08:47;;;;;;;14.70;9.10;;;6.90;82.00;;;;;;4958993;28;20194;-66
2021/10/13 06:11:13;;;;;;;13.73;8.95;;;6.90;82.00;;;;;;4958111;28;20089;-67
2021/10/13 06:13:40;;;;;;;12.93;9.00;;;7.00;82.10;;;;;;4959452;28;20517;-66
2021/10/13 06:16:07;;;;;;;12.27;9.38;;;7.00;82.10;;;;;;4959876;28;20422;-66
2021/10/13 06:18:34;;;;;;;12.52;9.48;;;7.10;82.20;;;;;;4961221;28;20488;-67
2021/10/13 06:21:00;;;;;;;11.90;9.05;;;7.10;82.10;;;;;;4959852;28;20506;-66
2021/10/13 06:23:25;;;;;;;15.45;10.50;;;7.20;82.10;;;;;;4959955;28;20027;-67
2021/10/13 06:25:51;;;;;;;14.43;10.35;;;7.30;82.10;;;;;;4959105;28;20031;-67
2021/10/13 06:28:17;;;;;;;13.98;10.63;;;7.30;82.10;;;;;;4958587;28;20035;-66
2021/10/13 06:30:43;;;;;;;17.35;11.27;;;7.40;82.20;;;;;;4958471;28;20544;-66
2021/10/13 06:33:08;;;;;;;15.85;10.75;;;7.40;81.90;;;;;;4959950;28;20035;-66
2021/10/13 06:35:34;;;;;;;10.93;8.80;;;7.50;81.90;;;;;;4959281;28;20458;-65
2021/10/13 06:38:00;;;;;;;11.70;8.43;;;7.50;81.70;;;;;;4960160;28;20042;-66
2021/10/13 06:40:26;;;;;;;10.30;7.97;;;7.50;81.70;;;;;;4960049;28;20101;-67
2021/10/13 06:42:52;;;;;;;8.73;7.45;;;7.60;81.70;;;;;;4959518;28;20121;-66
2021/10/13 06:45:17;;;;;;;10.98;7.63;;;7.60;81.70;;;;;;4959795;28;20036;-66
2021/10/13 06:47:43;;;;;;;9.70;6.72;;;7.60;81.60;;;;;;4960671;28;20525;-66
2021/10/13 06:50:10;;;;;;;9.85;6.93;;;7.60;81.60;;;;;;4960455;28;20545;-66
2021/10/13 06:52:37;;;;;;;7.57;6.43;;;7.70;81.70;;;;;;4960147;28;20047;-67
2021/10/13 06:55:04;;;;;;;8.52;6.93;;;7.70;81.60;;;;;;4960491;28;20043;-66
2021/10/13 06:57:29;;;;;;;9.18;7.15;;;7.70;81.50;;;;;;4974773;28;20093;-66
2021/10/13 06:59:55;;;;;;;12.30;7.80;;;7.70;81.50;;;;;;4960362;28;20445;-67
2021/10/13 07:02:21;;;;;;;9.38;6.70;;;7.70;81.50;;;;;;4959562;28;20035;-66
2021/10/13 07:04:46;;;;;;;7.40;6.50;;;7.70;81.70;;;;;;4958888;28;20398;-66
2021/10/13 07:07:12;;;;;;;8.15;6.53;;;7.70;81.70;;;;;;4959684;28;20039;-66
2021/10/13 07:09:38;;;;;;;8.70;6.93;;;7.80;81.70;;;;;;4959261;28;20344;-66
2021/10/13 07:12:03;;;;;;;11.25;7.28;;;7.80;81.70;;;;;;4958141;28;20080;-66
2021/10/13 07:14:29;;;;;;;9.90;6.70;;;7.80;81.70;;;;;;4972710;28;20106;-66
2021/10/13 07:16:55;;;;;;;12.30;6.95;;;7.90;81.80;;;;;;4958181;28;20028;-66
2021/10/13 07:19:20;;;;;;;7.28;6.13;;;8.00;81.90;;;;;;4960897;28;20058;-67
2021/10/13 07:21:46;;;;;;;9.15;6.32;;;8.00;81.80;;;;;;4959277;28;20031;-66
2021/10/13 07:24:11;;;;;;;10.52;6.38;;;8.00;81.80;;;;;;4959086;28;20035;-67
2021/10/13 07:26:41;;;;;;;8.60;6.03;;;8.00;81.70;;;;;;4963914;28;20398;-66
2021/10/13 07:29:07;;;;;;;6.47;5.35;;;8.00;81.80;;;;;;4957840;28;20114;-66
2021/10/13 07:31:32;;;;;;;9.05;5.28;;;8.00;81.70;;;;;;4957724;28;20185;-66
2021/10/13 07:33:59;;;;;;;9.77;5.95;;;8.10;81.70;;;;;;4958458;28;20518;-66
2021/10/13 07:36:24;;;;;;;10.68;6.32;;;8.10;81.50;;;;;;4958607;28;20062;-67
2021/10/13 07:38:50;;;;;;;8.98;5.88;;;8.20;81.40;;;;;;4958804;28;20042;-66
2021/10/13 07:41:17;;;;;;;8.93;5.55;;;8.20;81.30;;;;;;4959129;28;20134;-66
2021/10/13 07:43:43;;;;;;;6.18;5.00;;;8.20;81.40;;;;;;4957414;28;20032;-66
2021/10/13 07:46:11;;;;;;;7.57;5.93;;;8.30;81.50;;;;;;4959038;28;20121;-66
2021/10/13 07:48:37;;;;;;;6.80;5.25;;;8.30;81.40;;;;;;4959462;28;20035;-67
2021/10/13 07:51:03;;;;;;;7.97;6.15;;;8.40;81.30;;;;;;4959460;28;20223;-67
2021/10/13 07:53:28;;;;;;;8.30;5.32;;;8.40;81.00;;;;;;4959997;28;20507;-64
2021/10/13 07:55:54;;;;;;;9.45;5.53;;;8.40;80.80;;;;;;4958235;28;20027;-66
2021/10/13 07:58:20;;;;;;;6.30;5.05;;;8.50;80.80;;;;;;4959717;28;20047;-66
2021/10/13 08:00:46;;;;;;;7.57;5.25;;;8.50;80.70;;;;;;4961882;28;20074;-67
2021/10/13 08:03:11;;;;;;;9.55;6.05;;;8.50;80.90;;;;;;4959283;28;20498;-66
2021/10/13 08:05:38;;;;;;;7.38;6.20;;;8.60;81.00;;;;;;4962552;28;20038;-66
2021/10/13 08:08:04;;;;;;;7.65;5.80;;;8.60;80.50;;;;;;4963330;28;20529;-66
2021/10/13 08:10:30;;;;;;;6.38;5.65;;;8.60;80.20;;;;;;4960291;28;20094;-66
2021/10/13 08:12:56;;;;;;;6.22;5.55;;;8.70;80.50;;;;;;4963448;28;20046;-67
2021/10/13 08:15:21;;;;;;;6.75;5.32;;;8.70;80.70;;;;;;4962415;28;20417;-67
2021/10/13 08:17:48;;;;;;;7.80;5.45;;;8.80;80.70;;;;;;4961031;28;20027;-67
2021/10/13 08:20:14;;;;;;;11.25;5.43;;;8.90;80.60;;;;;;4961464;28;20505;-67
2021/10/13 08:22:40;;;;;;;6.32;5.43;;;8.90;80.50;;;;;;4959861;28;20027;-67
2021/10/13 08:25:07;;;;;;;7.22;5.75;;;8.90;80.50;;;;;;4962460;28;20035;-66
2021/10/13 08:27:33;;;;;;;9.05;5.57;;;9.00;80.40;;;;;;4961930;28;20378;-67
2021/10/13 08:29:58;;;;;;;6.32;5.50;;;9.10;80.30;;;;;;4961206;28;20101;-67
2021/10/13 08:32:24;;;;;;;6.45;5.05;;;9.10;80.10;;;;;;4960779;28;20292;-67
2021/10/13 08:34:50;;;;;;;7.60;6.00;;;9.10;80.10;;;;;;4961375;28;20139;-66
2021/10/13 08:37:15;;;;;;;8.10;6.10;;;9.20;80.10;;;;;;4959956;28;20122;-67
2021/10/13 08:39:41;;;;;;;8.35;5.78;;;9.20;79.80;;;;;;4960328;28;20494;-67
2021/10/13 08:42:07;;;;;;;8.27;5.55;;;9.30;79.70;;;;;;4960648;28;20031;-66
2021/10/13 08:44:33;;;;;;;8.32;5.82;;;9.40;79.50;;;;;;4959864;28;20031;-67
2021/10/13 08:47:00;;;;;;;9.40;5.40;;;9.50;79.30;;;;;;4959530;28;20565;-66
2021/10/13 08:49:25;;;;;;;5.78;4.95;;;9.50;79.10;;;;;;4960688;28;20031;-66
2021/10/13 08:51:51;;;;;;;7.45;5.35;;;9.60;78.90;;;;;;4960223;28;20538;-67
2021/10/13 08:54:20;;;;;;;6.13;4.82;;;9.60;78.60;;;;;;4959525;28;20518;-66
2021/10/13 08:56:46;;;;;;;7.32;5.38;;;9.60;78.20;;;;;;4958420;28;20405;-67
2021/10/13 08:59:37;;;;;;;7.05;5.10;;;9.70;78.00;;;;;;4962509;28;20063;-66
2021/10/13 09:02:03;;;;;;;6.18;5.13;;;9.70;77.20;;;;;;4960813;28;20379;-66
2021/10/13 09:04:28;;;;;;;6.60;5.68;;;9.70;77.70;;;;;;4959276;28;20565;-67
2021/10/13 09:07:02;;;;;;;7.38;5.32;;;9.80;77.80;;;;;;4961991;28;20110;-67
2021/10/13 09:09:28;;;;;;;7.53;5.68;;;9.80;77.70;;;;;;4961621;28;20043;-67
2021/10/13 09:11:53;;;;;;;8.68;6.05;;;9.90;77.90;;;;;;4959502;28;20073;-68
2021/10/13 09:14:27;;;;;;;6.88;5.53;;;9.90;77.70;;;;;;4960662;28;20035;-67
2021/10/13 09:16:52;;;;;;;7.82;6.05;;;10.00;77.70;;;;;;4960296;28;20031;-67
2021/10/13 09:19:20;;;;;;;8.85;5.63;;;10.00;77.50;;;;;;4961475;28;20125;-66
2021/10/13 09:21:46;;;;;;;5.53;4.68;;;10.10;77.00;;;;;;4959368;28;20537;-67
2021/10/13 09:24:12;;;;;;;6.30;5.18;;;10.10;76.80;;;;;;4959396;28;20058;-67
2021/10/13 09:26:38;;;;;;;8.75;5.80;;;10.20;77.10;;;;;;4960032;28;20071;-67
2021/10/13 09:29:07;;;;;;;6.38;5.45;;;10.30;76.80;;;;;;4958690;28;20440;-67
2021/10/13 09:31:33;;;;;;;6.70;5.38;;;10.30;76.20;;;;;;4958897;28;20071;-66
2021/10/13 09:34:10;;;;;;;7.68;5.00;;;10.40;76.10;;;;;;4959830;28;20125;-67
2021/10/13 09:36:44;;;;;;;8.32;5.13;;;10.50;75.80;;;;;;4958363;28;20786;-66
2021/10/13 09:39:13;;;;;;;7.70;5.13;;;10.50;75.60;;;;;;4958699;28;20043;-67
2021/10/13 09:41:54;;;;;;;4.70;4.20;;;10.60;75.30;;;;;;4958750;28;22377;-67
2021/10/13 09:44:20;;;;;;;2.90;2.45;;;10.70;73.80;;;;;;4958929;28;20061;-67
2021/10/13 09:46:47;;;;;;;2.90;2.28;;;10.60;73.90;;;;;;4957609;28;20039;-67
2021/10/13 09:49:12;;;;;;;3.00;2.30;;;10.70;73.70;;;;;;4959803;28;20093;-67
2021/10/13 09:51:38;;;;;;;3.25;2.22;;;10.70;73.90;;;;;;4960520;28;20506;-67
2021/10/13 09:54:07;;;;;;;2.63;2.33;;;10.70;73.90;;;;;;4960539;28;20534;-67
2021/10/13 09:56:38;;;;;;;2.78;2.40;;;10.80;72.70;;;;;;4958599;28;20027;-67
2021/10/13 09:59:15;;;;;;;3.13;2.33;;;10.80;71.60;;;;;;4961168;28;20039;-67
2021/10/13 10:01:44;;;;;;;3.92;2.50;;;10.80;69.90;;;;;;4960967;28;20035;-67
2021/10/13 10:04:14;;;;;;;2.95;2.65;;;10.80;71.10;;;;;;4961415;28;20126;-67
2021/10/13 10:06:41;;;;;;;5.80;2.90;;;10.80;71.10;;;;;;4960276;28;20506;-67
2021/10/13 10:09:07;;;;;;;2.92;2.55;;;10.80;71.00;;;;;;4959768;28;20090;-67
2021/10/13 10:11:40;;;;;;;4.93;2.80;;;10.80;71.30;;;;;;4975456;28;20066;-67
2021/10/13 10:14:35;;;;;;;2.95;2.67;;;10.80;71.50;;;;;;4959897;28;20089;-67
2021/10/13 10:17:02;;;;;;;;;;;10.90;70.20;;;;;;4959650;28;20041;-68
2021/10/13 10:19:57;;;;;;;3.97;2.88;;;10.90;70.40;;;;;;4960053;28;20444;-66
2021/10/13 10:22:23;;;;;;;3.92;3.22;;;10.90;72.20;;;;;;4956263;28;20039;-68
2021/10/13 10:24:51;;;;;;;3.65;3.30;;;10.90;71.20;;;;;;4964372;28;20034;-67
2021/10/13 10:27:23;;;;;;;3.65;3.20;;;11.00;70.80;;;;;;4959127;28;20054;-67
2021/10/13 10:29:59;;;;;;;5.15;3.35;;;11.00;70.90;;;;;;4959151;28;20057;-67
2021/10/13 10:32:24;;;;;;;3.58;3.00;;;10.90;70.00;;;;;;4959663;28;20038;-67
2021/10/13 10:35:05;;;;;;;5.97;3.42;;;11.00;71.10;;;;;;4958524;28;20453;-67
2021/10/13 10:37:48;;;;;;;4.10;3.15;;;11.00;70.40;;;;;;4959210;28;20027;-67
2021/10/13 10:40:13;;;;;;;3.38;3.10;;;11.00;70.60;;;;;;4958405;28;20091;-67
2021/10/13 10:42:49;;;;;;;3.65;3.30;;;11.10;71.60;;;;;;4957659;28;20093;-68
2021/10/13 10:45:17;;;;;;;4.60;3.45;;;11.10;71.10;;;;;;4957090;28;20023;-68
2021/10/13 10:48:04;;;;;;;11.45;7.90;;;11.20;71.40;;;;;;4961329;28;20046;-67
2021/10/13 10:50:57;;;;;;;4.75;3.38;;;11.20;71.50;;;;;;4957638;28;20036;-67
2021/10/13 10:53:27;;;;;;;3.50;3.17;;;11.40;70.70;;;;;;4959260;28;20035;-67
2021/10/13 10:55:55;;;;;;;4.82;2.58;;;11.40;70.90;;;;;;4959066;28;20046;-67
2021/10/13 10:58:31;;;;;;;3.13;2.45;;;11.50;70.40;;;;;;4958599;28;20035;-67
2021/10/13 11:01:11;;;;;;;2.92;2.30;;;11.60;68.50;;;;;;4958826;28;20510;-67
2021/10/13 11:03:41;;;;;;;2.58;2.22;;;11.60;68.50;;;;;;4959328;28;20062;-67
2021/10/13 11:06:33;;;;;;;2.38;2.17;;;11.70;69.00;;;;;;4957734;28;20514;-67
2021/10/13 11:09:04;;;;;;;2.45;2.05;;;11.60;69.10;;;;;;4958912;28;20502;-67
2021/10/13 11:11:41;;;;;;;2.95;1.30;;;11.70;68.80;;;;;;4955987;28;20114;-67
2021/10/13 11:14:12;;;;;;;1.90;0.95;;;11.70;67.00;;;;;;4958043;28;20039;-67
2021/10/13 11:16:47;;;;;;;1.65;1.02;;;11.70;66.90;;;;;;4958819;28;20125;-68
2021/10/13 11:19:20;;;;;;;;;;;11.80;66.70;;;;;;4964836;28;20645;-68
2021/10/13 11:21:53;;;;;;;1.77;1.15;;;11.70;62.70;;;;;;4959184;28;19922;-68
2021/10/13 11:24:18;;;;;;;1.63;1.00;;;11.80;67.00;;;;;;4959036;28;20097;-68
2021/10/13 11:26:45;;;;;;;3.80;0.95;;;11.70;66.40;;;;;;4956865;28;20043;-68
2021/10/13 11:29:37;;;;;;;4.28;1.10;;;11.80;66.00;;;;;;4959015;28;20030;-67
2021/10/13 11:32:07;;;;;;;2.58;1.10;;;11.80;64.30;;;;;;4957858;28;20671;-67
2021/10/13 11:34:33;;;;;;;1.38;1.00;;;11.80;66.30;;;;;;4958896;28;20042;-68
2021/10/13 11:36:59;;;;;;;1.50;1.00;;;11.80;65.90;;;;;;4960373;28;20399;-67
2021/10/13 11:39:32;;;;;;;1.67;0.80;;;11.70;65.90;;;;;;4966224;28;20536;-67
2021/10/13 11:41:59;;;;;;;1.55;0.70;;;11.80;64.70;;;;;;4961887;28;20445;-67
2021/10/13 11:44:26;;;;;;;1.55;0.90;;;11.80;65.70;;;;;;4959559;28;20039;-67
2021/10/13 11:47:02;;;;;;;2.47;0.80;;;11.90;65.90;;;;;;4964004;28;20089;-68
2021/10/13 11:49:28;;;;;;;1.85;0.85;;;11.90;65.50;;;;;;4962009;28;20065;-67
2021/10/13 11:52:09;;;;;;;1.42;1.00;;;11.90;65.70;;;;;;4961948;28;20121;-67
2021/10/13 11:54:35;;;;;;;1.27;1.02;;;12.00;64.30;;;;;;4961069;28;20035;-67
2021/10/13 11:57:01;;;;;;;2.85;1.13;;;12.00;64.90;;;;;;4961437;28;20486;-67
2021/10/13 11:59:26;;;;;;;2.15;1.40;;;12.00;65.00;;;;;;4962385;28;20073;-67
2021/10/13 12:01:52;;;;;;;3.33;1.13;;;12.00;65.00;;;;;;4961122;28;20502;-67
2021/10/13 12:04:18;;;;;;;2.65;1.15;;;12.00;64.50;;;;;;4963142;28;20031;-67
2021/10/13 12:06:45;;;;;;;1.55;0.73;;;12.10;64.70;;;;;;4963923;28;20494;-67
2021/10/13 12:09:11;;;;;;;1.92;0.90;;;12.10;64.40;;;;;;4962875;28;20050;-67
2021/10/13 12:11:38;;;;;;;1.25;0.57;;;12.10;63.80;;;;;;4963215;28;20039;-68
2021/10/13 12:14:12;;;;;;;2.38;0.90;;;12.10;63.90;;;;;;4961839;28;20043;-67
2021/10/13 12:16:38;;;;;;;1.13;0.80;;;12.20;63.70;;;;;;4961830;28;20024;-68
2021/10/13 12:19:15;;;;;;;1.20;0.65;;;12.20;64.00;;;;;;4962132;28;20770;-68
2021/10/13 12:22:01;;;;;;;3.53;0.70;;;12.20;62.20;;;;;;4967896;28;20492;-67
2021/10/13 12:24:26;;;;;;;2.15;0.90;;;12.30;62.60;;;;;;4961420;28;20394;-68
2021/10/13 12:26:52;;;;;;;3.00;1.10;;;12.30;63.50;;;;;;4965837;28;20093;-68
2021/10/13 12:29:18;;;;;;;1.10;0.95;;;12.30;63.10;;;;;;4961335;28;20577;-67
2021/10/13 12:31:44;;;;;;;1.60;1.13;;;12.40;63.10;;;;;;4961044;28;20129;-67
2021/10/13 12:34:15;;;;;;;1.92;1.15;;;12.40;63.40;;;;;;4961115;28;20122;-68
2021/10/13 12:36:53;;;;;;;1.05;0.90;;;12.40;63.20;;;;;;4967013;28;20130;-67
2021/10/13 12:39:24;;;;;;;5.07;4.00;;;12.40;62.40;;;;;;4963441;28;20086;-68
2021/10/13 12:41:51;;;;;;;1.88;0.90;;;12.50;62.60;;;;;;4961738;28;20038;-67
2021/10/13 12:44:25;;;;;;;2.35;0.80;;;12.50;62.00;;;;;;4962496;28;20073;-67
2021/10/13 12:46:55;;;;;;;1.00;0.90;;;12.40;60.70;;;;;;4960512;28;20055;-67
2021/10/13 12:49:24;;;;;;;2.38;1.50;;;12.40;61.50;;;;;;4961618;28;20414;-67
2021/10/13 12:52:05;;;;;;;3.28;1.48;;;12.40;62.40;;;;;;4962027;28;20039;-68
2021/10/13 12:54:50;;;;;;;1.60;1.08;;;12.40;61.50;;;;;;4959691;28;20030;-67
2021/10/13 12:57:21;;;;;;;2.00;0.90;;;12.40;61.40;;;;;;4961704;28;20042;-68
2021/10/13 12:59:48;;;;;;;1.73;1.20;;;12.40;61.50;;;;;;4959802;28;20046;-68